sensor_id;sensor_type;location;lat;lon;timestamp;pressure;altitude;pressure_sealevel;temperature;humidity
2192;BME280;1102;49.718;11.902;2023-03-03T00:01:16;96443.97;;;-1.87;100.00
2192;BME280;1102;49.718;11.902;2023-03-03T00:03:43;96445.44;;;-1.96;100.00
2192;BME280;1102;49.718;11.902;2023-03-03T00:06:12;96448.31;;;-1.93;100.00
2192;BME280;1102;49.718;11.902;2023-03-03T00:08:39;96422.81;;;-2.28;100.00
2192;BME280;1102;49.718;11.902;2023-03-03T00:11:06;96419.97;;;-2.04;100.00
2192;BME280;1102;49.718;11.902;2023-03-03T00:16:15;96444.81;;;-1.82;100.00
2192;BME280;1102;49.718;11.902;2023-03-03T00:18:45;96424.59;;;-1.85;100.00
2192;BME280;1102;49.718;11.902;2023-03-03T00:21:31;96446.66;;;-1.77;100.00
2192;BME280;1102;49.718;11.902;2023-03-03T00:27:30;96447.50;;;-1.98;100.00
2192;BME280;1102;49.718;11.902;2023-03-03T00:29:59;96447.38;;;-2.09;100.00
2192;BME280;1102;49.718;11.902;2023-03-03T00:32:41;96451.81;;;-2.04;100.00
2192;BME280;1102;49.718;11.902;2023-03-03T00:35:27;96453.63;;;-2.04;100.00
2192;BME280;1102;49.718;11.902;2023-03-03T00:37:58;96456.50;;;-2.01;100.00
2192;BME280;1102;49.718;11.902;2023-03-03T00:40:36;96440.88;;;-2.11;100.00
2192;BME280;1102;49.718;11.902;2023-03-03T00:43:24;96460.50;;;-2.15;100.00
2192;BME280;1102;49.718;11.902;2023-03-03T00:45:54;96446.31;;;-2.13;100.00
2192;BME280;1102;49.718;11.902;2023-03-03T00:50:53;96416.28;;;-2.35;100.00
2192;BME280;1102;49.718;11.902;2023-03-03T00:53:22;96423.78;;;-2.34;100.00
2192;BME280;1102;49.718;11.902;2023-03-03T00:55:50;96447.75;;;-2.00;100.00
2192;BME280;1102;49.718;11.902;2023-03-03T00:58:18;96450.88;;;-1.98;100.00
2192;BME280;1102;49.718;11.902;2023-03-03T01:00:52;96408.88;;;-2.49;100.00
2192;BME280;1102;49.718;11.902;2023-03-03T01:03:24;96428.84;;;-2.66;100.00
2192;BME280;1102;49.718;11.902;2023-03-03T01:05:53;96451.50;;;-2.73;100.00
2192;BME280;1102;49.718;11.902;2023-03-03T01:08:20;96453.59;;;-2.70;100.00
2192;BME280;1102;49.718;11.902;2023-03-03T01:10:56;96446.81;;;-2.54;100.00
2192;BME280;1102;49.718;11.902;2023-03-03T01:13:27;96450.09;;;-2.42;100.00
2192;BME280;1102;49.718;11.902;2023-03-03T01:15:56;96417.16;;;-2.47;100.00
2192;BME280;1102;49.718;11.902;2023-03-03T01:18:23;96438.13;;;-2.26;100.00
2192;BME280;1102;49.718;11.902;2023-03-03T01:20:50;96429.88;;;-2.45;100.00
2192;BME280;1102;49.718;11.902;2023-03-03T01:23:16;96426.97;;;-2.49;100.00
2192;BME280;1102;49.718;11.902;2023-03-03T01:25:43;96435.16;;;-2.35;100.00
2192;BME280;1102;49.718;11.902;2023-03-03T01:28:10;96440.47;;;-2.25;100.00
2192;BME280;1102;49.718;11.902;2023-03-03T01:30:37;96408.63;;;-2.47;100.00
2192;BME280;1102;49.718;11.902;2023-03-03T01:33:03;96400.91;;;-2.64;100.00
2192;BME280;1102;49.718;11.902;2023-03-03T01:35:30;96447.66;;;-2.71;100.00
2192;BME280;1102;49.718;11.902;2023-03-03T01:37:57;96433.34;;;-2.95;100.00
2192;BME280;1102;49.718;11.902;2023-03-03T01:40:28;96417.50;;;-2.82;100.00
2192;BME280;1102;49.718;11.902;2023-03-03T01:42:57;96419.44;;;-2.72;100.00
2192;BME280;1102;49.718;11.902;2023-03-03T01:45:27;96442.44;;;-2.54;100.00
2192;BME280;1102;49.718;11.902;2023-03-03T01:48:09;96444.72;;;-2.57;100.00
2192;BME280;1102;49.718;11.902;2023-03-03T02:10:31;96385.28;;;-2.74;100.00
2192;BME280;1102;49.718;11.902;2023-03-03T02:12:58;96419.13;;;-2.76;100.00
2192;BME280;1102;49.718;11.902;2023-03-03T02:15:33;96425.59;;;-2.78;100.00
2192;BME280;1102;49.718;11.902;2023-03-03T02:18:06;96395.34;;;-2.94;100.00
2192;BME280;1102;49.718;11.902;2023-03-03T02:20:57;96429.53;;;-2.71;100.00
2192;BME280;1102;49.718;11.902;2023-03-03T02:26:21;96426.38;;;-2.78;100.00
2192;BME280;1102;49.718;11.902;2023-03-03T02:28:53;96431.44;;;-2.66;100.00
2192;BME280;1102;49.718;11.902;2023-03-03T02:31:22;96433.25;;;-2.83;100.00
2192;BME280;1102;49.718;11.902;2023-03-03T02:33:51;96408.75;;;-2.98;100.00
2192;BME280;1102;49.718;11.902;2023-03-03T02:36:23;96432.63;;;-2.74;100.00
2192;BME280;1102;49.718;11.902;2023-03-03T02:41:54;96430.41;;;-2.65;100.00
2192;BME280;1102;49.718;11.902;2023-03-03T02:44:31;96422.84;;;-2.88;100.00
2192;BME280;1102;49.718;11.902;2023-03-03T02:46:58;96425.13;;;-3.09;100.00
2192;BME280;1102;49.718;11.902;2023-03-03T02:49:29;96384.34;;;-3.40;100.00
2192;BME280;1102;49.718;11.902;2023-03-03T02:51:58;96414.50;;;-3.12;100.00
2192;BME280;1102;49.718;11.902;2023-03-03T02:54:27;96424.84;;;-3.12;100.00
2192;BME280;1102;49.718;11.902;2023-03-03T02:56:57;96425.28;;;-2.99;100.00
2192;BME280;1102;49.718;11.902;2023-03-03T02:59:25;96424.66;;;-2.89;100.00
2192;BME280;1102;49.718;11.902;2023-03-03T03:01:53;96432.00;;;-2.81;100.00
2192;BME280;1102;49.718;11.902;2023-03-03T03:04:26;96433.53;;;-3.02;100.00
2192;BME280;1102;49.718;11.902;2023-03-03T03:06:54;96429.75;;;-2.94;100.00
2192;BME280;1102;49.718;11.902;2023-03-03T03:09:23;96430.63;;;-3.05;100.00
2192;BME280;1102;49.718;11.902;2023-03-03T03:11:52;96424.53;;;-3.16;100.00
2192;BME280;1102;49.718;11.902;2023-03-03T03:14:22;96419.28;;;-3.04;100.00
2192;BME280;1102;49.718;11.902;2023-03-03T03:16:50;96428.06;;;-3.05;100.00
2192;BME280;1102;49.718;11.902;2023-03-03T03:19:18;96408.00;;;-3.15;100.00
2192;BME280;1102;49.718;11.902;2023-03-03T03:21:45;96429.28;;;-2.91;100.00
2192;BME280;1102;49.718;11.902;2023-03-03T03:24:12;96411.59;;;-3.16;100.00
2192;BME280;1102;49.718;11.902;2023-03-03T03:26:43;96409.16;;;-3.22;100.00
2192;BME280;1102;49.718;11.902;2023-03-03T03:29:09;96435.09;;;-3.01;100.00
2192;BME280;1102;49.718;11.902;2023-03-03T03:31:37;96398.53;;;-3.26;100.00
2192;BME280;1102;49.718;11.902;2023-03-03T03:34:04;96407.16;;;-3.20;100.00
2192;BME280;1102;49.718;11.902;2023-03-03T03:36:32;96408.63;;;-3.24;100.00
2192;BME280;1102;49.718;11.902;2023-03-03T03:38:59;96441.28;;;-3.02;100.00
2192;BME280;1102;49.718;11.902;2023-03-03T03:41:29;96436.09;;;-3.02;100.00
2192;BME280;1102;49.718;11.902;2023-03-03T03:43:55;96400.09;;;-3.25;100.00
2192;BME280;1102;49.718;11.902;2023-03-03T03:46:22;96422.81;;;-3.44;100.00
2192;BME280;1102;49.718;11.902;2023-03-03T03:48:49;96431.25;;;-3.15;100.00
2192;BME280;1102;49.718;11.902;2023-03-03T03:51:18;96428.28;;;-3.07;100.00
2192;BME280;1102;49.718;11.902;2023-03-03T03:53:45;96408.25;;;-3.33;100.00
2192;BME280;1102;49.718;11.902;2023-03-03T03:56:11;96423.84;;;-3.45;100.00
2192;BME280;1102;49.718;11.902;2023-03-03T03:58:40;96408.63;;;-3.58;100.00
2192;BME280;1102;49.718;11.902;2023-03-03T04:01:09;96407.75;;;-3.64;100.00
2192;BME280;1102;49.718;11.902;2023-03-03T04:03:41;96400.25;;;-3.65;100.00
2192;BME280;1102;49.718;11.902;2023-03-03T04:06:11;96431.03;;;-3.47;100.00
2192;BME280;1102;49.718;11.902;2023-03-03T04:08:38;96427.81;;;-3.54;100.00
2192;BME280;1102;49.718;11.902;2023-03-03T04:11:06;96418.50;;;-3.72;100.00
2192;BME280;1102;49.718;11.902;2023-03-03T04:13:33;96433.34;;;-3.62;100.00
2192;BME280;1102;49.718;11.902;2023-03-03T04:16:03;96379.44;;;-4.21;100.00
2192;BME280;1102;49.718;11.902;2023-03-03T04:18:30;96442.47;;;-3.60;100.00
2192;BME280;1102;49.718;11.902;2023-03-03T04:20:57;96409.47;;;-3.86;100.00
2192;BME280;1102;49.718;11.902;2023-03-03T04:23:25;96442.53;;;-3.54;100.00
2192;BME280;1102;49.718;11.902;2023-03-03T04:25:52;96440.31;;;-3.63;100.00
2192;BME280;1102;49.718;11.902;2023-03-03T04:28:20;96434.25;;;-3.57;100.00
2192;BME280;1102;49.718;11.902;2023-03-03T04:30:48;96423.50;;;-3.65;100.00
2192;BME280;1102;49.718;11.902;2023-03-03T04:33:17;96415.66;;;-3.70;100.00
2192;BME280;1102;49.718;11.902;2023-03-03T04:35:44;96449.84;;;-3.80;100.00
2192;BME280;1102;49.718;11.902;2023-03-03T04:38:11;96396.94;;;-4.23;100.00
2192;BME280;1102;49.718;11.902;2023-03-03T04:40:40;96430.03;;;-3.91;100.00
2192;BME280;1102;49.718;11.902;2023-03-03T04:43:08;96440.28;;;-3.96;100.00
2192;BME280;1102;49.718;11.902;2023-03-03T04:45:35;96416.75;;;-4.11;100.00
2192;BME280;1102;49.718;11.902;2023-03-03T04:48:03;96454.59;;;-3.89;100.00
2192;BME280;1102;49.718;11.902;2023-03-03T04:50:30;96446.06;;;-3.89;100.00
2192;BME280;1102;49.718;11.902;2023-03-03T04:52:57;96438.09;;;-3.88;100.00
2192;BME280;1102;49.718;11.902;2023-03-03T04:55:24;96417.03;;;-3.96;100.00
2192;BME280;1102;49.718;11.902;2023-03-03T04:57:50;96433.03;;;-3.82;100.00
2192;BME280;1102;49.718;11.902;2023-03-03T05:00:17;96438.56;;;-3.91;100.00
2192;BME280;1102;49.718;11.902;2023-03-03T05:02:47;96465.88;;;-3.78;100.00
2192;BME280;1102;49.718;11.902;2023-03-03T05:05:14;96439.25;;;-3.95;100.00
2192;BME280;1102;49.718;11.902;2023-03-03T05:07:40;96455.16;;;-3.87;100.00
2192;BME280;1102;49.718;11.902;2023-03-03T05:10:07;96424.47;;;-4.00;100.00
2192;BME280;1102;49.718;11.902;2023-03-03T05:12:34;96462.72;;;-3.68;100.00
2192;BME280;1102;49.718;11.902;2023-03-03T05:15:01;96423.06;;;-3.91;100.00
2192;BME280;1102;49.718;11.902;2023-03-03T05:17:28;96454.97;;;-3.68;100.00
2192;BME280;1102;49.718;11.902;2023-03-03T05:19:54;96455.03;;;-3.63;100.00
2192;BME280;1102;49.718;11.902;2023-03-03T05:22:23;96431.03;;;-3.92;100.00
2192;BME280;1102;49.718;11.902;2023-03-03T05:24:49;96459.41;;;-3.80;100.00
2192;BME280;1102;49.718;11.902;2023-03-03T05:27:16;96471.09;;;-3.90;100.00
2192;BME280;1102;49.718;11.902;2023-03-03T05:29:43;96431.19;;;-4.27;100.00
2192;BME280;1102;49.718;11.902;2023-03-03T05:32:10;96463.66;;;-4.14;100.00
2192;BME280;1102;49.718;11.902;2023-03-03T05:34:39;96433.16;;;-4.58;100.00
2192;BME280;1102;49.718;11.902;2023-03-03T05:37:06;96465.56;;;-4.10;100.00
2192;BME280;1102;49.718;11.902;2023-03-03T05:39:33;96455.22;;;-3.98;100.00
2192;BME280;1102;49.718;11.902;2023-03-03T05:42:00;96463.13;;;-3.88;100.00
2192;BME280;1102;49.718;11.902;2023-03-03T05:44:27;96465.09;;;-3.78;100.00
2192;BME280;1102;49.718;11.902;2023-03-03T05:46:54;96455.16;;;-3.87;100.00
2192;BME280;1102;49.718;11.902;2023-03-03T05:49:22;96461.84;;;-3.74;100.00
2192;BME280;1102;49.718;11.902;2023-03-03T05:51:48;96468.19;;;-3.65;100.00
2192;BME280;1102;49.718;11.902;2023-03-03T05:54:15;96472.69;;;-3.60;100.00
2192;BME280;1102;49.718;11.902;2023-03-03T05:56:42;96461.84;;;-3.74;100.00
2192;BME280;1102;49.718;11.902;2023-03-03T05:59:08;96459.44;;;-3.92;100.00
2192;BME280;1102;49.718;11.902;2023-03-03T06:01:35;96486.78;;;-3.79;100.00
2192;BME280;1102;49.718;11.902;2023-03-03T06:04:02;96483.00;;;-3.89;100.00
2192;BME280;1102;49.718;11.902;2023-03-03T06:06:28;96457.66;;;-3.92;100.00
2192;BME280;1102;49.718;11.902;2023-03-03T06:08:55;96491.16;;;-3.80;100.00
2192;BME280;1102;49.718;11.902;2023-03-03T06:11:22;96491.59;;;-3.71;100.00
2192;BME280;1102;49.718;11.902;2023-03-03T06:13:49;96467.38;;;-3.82;100.00
2192;BME280;1102;49.718;11.902;2023-03-03T06:16:16;96487.00;;;-3.52;100.00
2192;BME280;1102;49.718;11.902;2023-03-03T06:18:43;96478.06;;;-3.62;100.00
2192;BME280;1102;49.718;11.902;2023-03-03T06:21:10;96503.72;;;-3.43;100.00
2192;BME280;1102;49.718;11.902;2023-03-03T06:23:36;96480.31;;;-3.65;100.00
2192;BME280;1102;49.718;11.902;2023-03-03T06:26:03;96506.91;;;-3.36;100.00
2192;BME280;1102;49.718;11.902;2023-03-03T06:28:30;96502.09;;;-3.33;100.00
2192;BME280;1102;49.718;11.902;2023-03-03T06:30:56;96514.66;;;-3.36;100.00
2192;BME280;1102;49.718;11.902;2023-03-03T06:33:23;96506.69;;;-3.63;100.00
2192;BME280;1102;49.718;11.902;2023-03-03T06:35:51;96502.78;;;-3.66;100.00
2192;BME280;1102;49.718;11.902;2023-03-03T06:38:18;96523.38;;;-3.42;100.00
2192;BME280;1102;49.718;11.902;2023-03-03T06:40:46;96501.22;;;-3.67;100.00
2192;BME280;1102;49.718;11.902;2023-03-03T06:43:13;96522.41;;;-3.36;100.00
2192;BME280;1102;49.718;11.902;2023-03-03T06:45:39;96518.81;;;-3.35;100.00
2192;BME280;1102;49.718;11.902;2023-03-03T06:48:06;96525.59;;;-3.17;100.00
2192;BME280;1102;49.718;11.902;2023-03-03T06:50:33;96493.25;;;-3.20;100.00
2192;BME280;1102;49.718;11.902;2023-03-03T06:53:20;96529.38;;;-2.91;100.00
2192;BME280;1102;49.718;11.902;2023-03-03T06:55:47;96495.59;;;-3.02;100.00
2192;BME280;1102;49.718;11.902;2023-03-03T06:58:18;96532.72;;;-2.74;100.00
2192;BME280;1102;49.718;11.902;2023-03-03T07:01:07;96527.06;;;-2.71;100.00
2192;BME280;1102;49.718;11.902;2023-03-03T07:03:35;96527.31;;;-2.73;100.00
2192;BME280;1102;49.718;11.902;2023-03-03T07:06:13;96552.03;;;-2.65;100.00
2192;BME280;1102;49.718;11.902;2023-03-03T07:08:42;96553.09;;;-2.61;100.00
2192;BME280;1102;49.718;11.902;2023-03-03T07:11:11;96555.22;;;-2.58;100.00
2192;BME280;1102;49.718;11.902;2023-03-03T07:13:44;96535.28;;;-2.57;100.00
2192;BME280;1102;49.718;11.902;2023-03-03T07:16:13;96574.16;;;-2.19;100.00
2192;BME280;1102;49.718;11.902;2023-03-03T07:21:19;96575.22;;;-1.98;100.00
2192;BME280;1102;49.718;11.902;2023-03-03T07:23:48;96538.69;;;-2.18;100.00
2192;BME280;1102;49.718;11.902;2023-03-03T07:26:31;96579.84;;;-1.78;100.00
2192;BME280;1102;49.718;11.902;2023-03-03T07:29:21;96571.81;;;-1.76;100.00
2192;BME280;1102;49.718;11.902;2023-03-03T07:31:49;96576.88;;;-1.65;100.00
2192;BME280;1102;49.718;11.902;2023-03-03T07:34:20;96604.66;;;-1.38;100.00
2192;BME280;1102;49.718;11.902;2023-03-03T07:36:49;96607.13;;;-1.27;100.00
2192;BME280;1102;49.718;11.902;2023-03-03T07:39:27;96609.88;;;-1.11;100.00
2192;BME280;1102;49.718;11.902;2023-03-03T07:44:36;96587.28;;;-1.16;100.00
2192;BME280;1102;49.718;11.902;2023-03-03T07:47:16;96618.78;;;-0.75;100.00
2192;BME280;1102;49.718;11.902;2023-03-03T07:49:45;96630.03;;;-0.65;100.00
2192;BME280;1102;49.718;11.902;2023-03-03T07:52:41;96626.56;;;-0.43;100.00
2192;BME280;1102;49.718;11.902;2023-03-03T08:03:11;96622.91;;;-0.47;100.00
2192;BME280;1102;49.718;11.902;2023-03-03T08:05:43;96634.00;;;-0.20;100.00
2192;BME280;1102;49.718;11.902;2023-03-03T08:08:28;96640.50;;;-0.22;100.00
2192;BME280;1102;49.718;11.902;2023-03-03T08:10:58;96596.44;;;-0.44;100.00
2192;BME280;1102;49.718;11.902;2023-03-03T08:13:35;96629.34;;;-0.18;100.00
2192;BME280;1102;49.718;11.902;2023-03-03T08:18:37;96634.28;;;-0.16;100.00
2192;BME280;1102;49.718;11.902;2023-03-03T08:21:12;96597.63;;;-0.20;100.00
2192;BME280;1102;49.718;11.902;2023-03-03T08:23:40;96609.72;;;0.02;100.00
2192;BME280;1102;49.718;11.902;2023-03-03T08:26:06;96563.63;;;-0.18;100.00
2192;BME280;1102;49.718;11.902;2023-03-03T08:28:33;96593.88;;;0.03;100.00
2192;BME280;1102;49.718;11.902;2023-03-03T08:31:00;96619.44;;;0.16;100.00
2192;BME280;1102;49.718;11.902;2023-03-03T08:33:45;96536.84;;;-0.19;100.00
2192;BME280;1102;49.718;11.902;2023-03-03T08:36:13;96607.03;;;0.34;100.00
2192;BME280;1102;49.718;11.902;2023-03-03T08:38:40;96633.91;;;0.54;100.00
2192;BME280;1102;49.718;11.902;2023-03-03T08:41:07;96630.78;;;0.57;100.00
2192;BME280;1102;49.718;11.902;2023-03-03T08:43:34;96624.31;;;0.65;100.00
2192;BME280;1102;49.718;11.902;2023-03-03T08:46:01;96586.53;;;0.47;100.00
2192;BME280;1102;49.718;11.902;2023-03-03T08:48:29;96569.59;;;0.35;100.00
2192;BME280;1102;49.718;11.902;2023-03-03T08:50:56;96621.78;;;0.80;100.00
2192;BME280;1102;49.718;11.902;2023-03-03T08:53:23;96586.59;;;0.73;100.00
2192;BME280;1102;49.718;11.902;2023-03-03T08:55:50;96626.53;;;1.09;100.00
2192;BME280;1102;49.718;11.902;2023-03-03T08:58:18;96626.22;;;1.05;100.00
2192;BME280;1102;49.718;11.902;2023-03-03T09:00:46;96620.53;;;1.18;100.00
2192;BME280;1102;49.718;11.902;2023-03-03T09:03:16;96611.41;;;0.96;100.00
2192;BME280;1102;49.718;11.902;2023-03-03T09:05:43;96605.44;;;1.15;100.00
2192;BME280;1102;49.718;11.902;2023-03-03T09:08:10;96606.44;;;1.04;100.00
2192;BME280;1102;49.718;11.902;2023-03-03T09:10:37;96604.66;;;1.15;100.00
2192;BME280;1102;49.718;11.902;2023-03-03T09:13:16;96626.28;;;1.46;100.00
2192;BME280;1102;49.718;11.902;2023-03-03T09:15:46;96619.25;;;1.41;100.00
2192;BME280;1102;49.718;11.902;2023-03-03T09:18:16;96626.81;;;1.48;100.00
2192;BME280;1102;49.718;11.902;2023-03-03T09:20:51;96622.63;;;1.67;100.00
2192;BME280;1102;49.718;11.902;2023-03-03T09:28:45;96613.47;;;2.05;100.00
2192;BME280;1102;49.718;11.902;2023-03-03T09:36:54;96630.88;;;2.35;100.00
2192;BME280;1102;49.718;11.902;2023-03-03T09:39:23;96628.25;;;2.41;100.00
2192;BME280;1102;49.718;11.902;2023-03-03T09:41:58;96628.50;;;2.44;100.00
2192;BME280;1102;49.718;11.902;2023-03-03T09:50:29;96595.56;;;2.53;100.00
2192;BME280;1102;49.718;11.902;2023-03-03T09:55:43;96626.44;;;2.95;100.00
2192;BME280;1102;49.718;11.902;2023-03-03T10:01:07;96641.47;;;2.70;100.00
2192;BME280;1102;49.718;11.902;2023-03-03T10:36:51;96654.06;;;4.38;100.00
2192;BME280;1102;49.718;11.902;2023-03-03T10:39:24;96658.59;;;4.56;100.00
2192;BME280;1102;49.718;11.902;2023-03-03T10:53:34;96628.38;;;4.64;100.00
2192;BME280;1102;49.718;11.902;2023-03-03T10:56:33;96643.88;;;4.84;100.00
2192;BME280;1102;49.718;11.902;2023-03-03T11:02:21;96645.84;;;4.92;100.00
2192;BME280;1102;49.718;11.902;2023-03-03T11:07:38;96657.66;;;4.90;100.00
2192;BME280;1102;49.718;11.902;2023-03-03T11:12:40;96653.31;;;5.23;100.00
2192;BME280;1102;49.718;11.902;2023-03-03T11:15:30;96651.06;;;5.35;100.00
2192;BME280;1102;49.718;11.902;2023-03-03T11:29:04;96629.44;;;5.95;100.00
2192;BME280;1102;49.718;11.902;2023-03-03T11:31:46;96633.06;;;6.12;98.82
2192;BME280;1102;49.718;11.902;2023-03-03T11:34:17;96631.88;;;6.05;97.05
2192;BME280;1102;49.718;11.902;2023-03-03T11:36:56;96603.00;;;5.91;98.66
2192;BME280;1102;49.718;11.902;2023-03-03T11:39:27;96609.34;;;5.85;96.72
2192;BME280;1102;49.718;11.902;2023-03-03T11:42:18;96627.69;;;5.90;95.49
2192;BME280;1102;49.718;11.902;2023-03-03T11:44:59;96593.00;;;5.74;96.13
2192;BME280;1102;49.718;11.902;2023-03-03T11:47:36;96612.25;;;5.83;98.32
2192;BME280;1102;49.718;11.902;2023-03-03T11:50:13;96615.53;;;5.94;96.82
2192;BME280;1102;49.718;11.902;2023-03-03T11:55:38;96610.00;;;6.09;96.72
2192;BME280;1102;49.718;11.902;2023-03-03T11:58:22;96577.75;;;6.22;95.26
2192;BME280;1102;49.718;11.902;2023-03-03T12:03:33;96595.22;;;6.82;92.94
2192;BME280;1102;49.718;11.902;2023-03-03T12:17:15;96584.38;;;7.87;87.39
2192;BME280;1102;49.718;11.902;2023-03-03T12:25:41;96569.66;;;7.86;82.70
2192;BME280;1102;49.718;11.902;2023-03-03T12:28:23;96604.34;;;9.41;80.36
2192;BME280;1102;49.718;11.902;2023-03-03T12:31:02;96603.09;;;9.65;77.10
2192;BME280;1102;49.718;11.902;2023-03-03T12:33:34;96599.31;;;9.92;76.56
2192;BME280;1102;49.718;11.902;2023-03-03T12:42:15;96597.63;;;9.70;75.86
2192;BME280;1102;49.718;11.902;2023-03-03T12:59:08;96599.16;;;10.44;71.65
2192;BME280;1102;49.718;11.902;2023-03-03T13:04:43;96568.28;;;10.18;70.82
2192;BME280;1102;49.718;11.902;2023-03-03T13:11:05;96586.88;;;10.39;73.64
2192;BME280;1102;49.718;11.902;2023-03-03T13:13:12;96555.78;;;9.98;73.87
2192;BME280;1102;49.718;11.902;2023-03-03T13:18:30;96575.31;;;9.50;74.87
2192;BME280;1102;49.718;11.902;2023-03-03T13:21:20;96574.69;;;9.18;76.79
2192;BME280;1102;49.718;11.902;2023-03-03T13:24:17;96586.88;;;9.92;75.36
2192;BME280;1102;49.718;11.902;2023-03-03T13:26:55;96580.22;;;9.69;77.72
2192;BME280;1102;49.718;11.902;2023-03-03T13:29:29;96579.94;;;9.62;78.16
2192;BME280;1102;49.718;11.902;2023-03-03T13:32:02;96527.97;;;9.19;78.92
2192;BME280;1102;49.718;11.902;2023-03-03T13:37:26;96578.41;;;10.54;79.06
2192;BME280;1102;49.718;11.902;2023-03-03T13:42:46;96571.66;;;9.81;78.90
2192;BME280;1102;49.718;11.902;2023-03-03T13:45:26;96570.44;;;9.78;79.79
2192;BME280;1102;49.718;11.902;2023-03-03T13:50:35;96572.78;;;10.26;79.42
2192;BME280;1102;49.718;11.902;2023-03-03T13:56:32;96536.47;;;9.59;79.32
2192;BME280;1102;49.718;11.902;2023-03-03T14:01:56;96568.91;;;10.24;79.05
2192;BME280;1102;49.718;11.902;2023-03-03T14:15:28;96525.88;;;10.74;78.54
2192;BME280;1102;49.718;11.902;2023-03-03T14:20:44;96558.72;;;10.93;76.05
2192;BME280;1102;49.718;11.902;2023-03-03T14:23:22;96557.09;;;10.80;76.48
2192;BME280;1102;49.718;11.902;2023-03-03T14:25:57;96542.84;;;10.73;78.15
2192;BME280;1102;49.718;11.902;2023-03-03T14:28:27;96551.94;;;10.33;77.94
2192;BME280;1102;49.718;11.902;2023-03-03T14:30:56;96553.47;;;11.80;76.03
2192;BME280;1102;49.718;11.902;2023-03-03T14:33:30;96528.97;;;10.76;75.73
2192;BME280;1102;49.718;11.902;2023-03-03T14:38:45;96554.19;;;11.69;75.85
2192;BME280;1102;49.718;11.902;2023-03-03T14:41:14;96551.75;;;11.31;76.03
2192;BME280;1102;49.718;11.902;2023-03-03T14:43:45;96538.81;;;9.99;78.17
2192;BME280;1102;49.718;11.902;2023-03-03T14:49:12;96539.16;;;9.97;78.25
2192;BME280;1102;49.718;11.902;2023-03-03T14:51:45;96542.13;;;10.63;78.03
2192;BME280;1102;49.718;11.902;2023-03-03T14:54:45;96543.56;;;10.82;78.13
2192;BME280;1102;49.718;11.902;2023-03-03T14:57:17;96532.56;;;10.50;77.84
2192;BME280;1102;49.718;11.902;2023-03-03T15:02:56;96516.84;;;9.77;78.82
2192;BME280;1102;49.718;11.902;2023-03-03T15:05:26;96516.19;;;9.89;77.81
2192;BME280;1102;49.718;11.902;2023-03-03T15:10:36;96509.91;;;9.64;79.00
2192;BME280;1102;49.718;11.902;2023-03-03T15:13:29;96533.72;;;9.04;80.19
2192;BME280;1102;49.718;11.902;2023-03-03T15:18:26;96517.88;;;9.38;79.13
2192;BME280;1102;49.718;11.902;2023-03-03T15:23:39;96541.66;;;9.12;79.84
2192;BME280;1102;49.718;11.902;2023-03-03T15:26:25;96508.69;;;8.41;78.98
2192;BME280;1102;49.718;11.902;2023-03-03T15:29:01;96539.25;;;8.02;80.84
2192;BME280;1102;49.718;11.902;2023-03-03T15:40:01;96540.00;;;7.18;83.43
2192;BME280;1102;49.718;11.902;2023-03-03T15:45:23;96534.84;;;6.27;83.21
2192;BME280;1102;49.718;11.902;2023-03-03T15:53:54;96528.47;;;5.59;84.78
2192;BME280;1102;49.718;11.902;2023-03-03T16:04:35;96521.88;;;4.97;85.11
2192;BME280;1102;49.718;11.902;2023-03-03T16:10:18;96529.41;;;4.85;87.27
2192;BME280;1102;49.718;11.902;2023-03-03T16:29:00;96539.19;;;4.12;94.79
2192;BME280;1102;49.718;11.902;2023-03-03T16:31:36;96527.56;;;4.00;95.90
2192;BME280;1102;49.718;11.902;2023-03-03T16:34:25;96545.06;;;4.04;95.99
2192;BME280;1102;49.718;11.902;2023-03-03T16:39:54;96556.44;;;3.66;100.00
2192;BME280;1102;49.718;11.902;2023-03-03T16:42:32;96532.34;;;3.40;100.00
2192;BME280;1102;49.718;11.902;2023-03-03T16:45:10;96564.13;;;3.52;100.00
2192;BME280;1102;49.718;11.902;2023-03-03T16:53:17;96574.06;;;3.16;100.00
2192;BME280;1102;49.718;11.902;2023-03-03T16:56:13;96575.75;;;3.02;100.00
2192;BME280;1102;49.718;11.902;2023-03-03T17:01:31;96586.72;;;2.99;100.00
2192;BME280;1102;49.718;11.902;2023-03-03T17:04:13;96588.34;;;2.89;100.00
2192;BME280;1102;49.718;11.902;2023-03-03T17:06:49;96591.47;;;2.91;100.00
2192;BME280;1102;49.718;11.902;2023-03-03T17:09:47;96592.06;;;2.78;100.00
2192;BME280;1102;49.718;11.902;2023-03-03T17:18:09;96577.16;;;2.24;100.00
2192;BME280;1102;49.718;11.902;2023-03-03T17:20:50;96581.88;;;2.12;100.00
2192;BME280;1102;49.718;11.902;2023-03-03T17:32:03;96586.38;;;2.01;100.00
2192;BME280;1102;49.718;11.902;2023-03-03T17:56:02;96636.13;;;1.03;100.00
2192;BME280;1102;49.718;11.902;2023-03-03T17:59:11;96622.81;;;0.89;100.00
2192;BME280;1102;49.718;11.902;2023-03-03T18:04:50;96630.38;;;0.91;100.00
2192;BME280;1102;49.718;11.902;2023-03-03T18:22:06;96641.78;;;0.75;100.00
2192;BME280;1102;49.718;11.902;2023-03-03T18:30:12;96652.69;;;0.72;100.00
2192;BME280;1102;49.718;11.902;2023-03-03T18:33:01;96633.81;;;0.39;100.00
2192;BME280;1102;49.718;11.902;2023-03-03T18:38:22;96642.75;;;0.01;100.00
2192;BME280;1102;49.718;11.902;2023-03-03T18:54:04;96660.25;;;0.16;100.00
2192;BME280;1102;49.718;11.902;2023-03-03T19:12:55;96649.00;;;-0.32;100.00
2192;BME280;1102;49.718;11.902;2023-03-03T19:18:18;96657.41;;;-0.52;100.00
2192;BME280;1102;49.718;11.902;2023-03-03T19:24:00;96653.25;;;-1.07;100.00
2192;BME280;1102;49.718;11.902;2023-03-03T19:26:44;96651.00;;;-0.98;100.00
2192;BME280;1102;49.718;11.902;2023-03-03T19:29:32;96645.81;;;-0.98;100.00
2192;BME280;1102;49.718;11.902;2023-03-03T19:35:00;96627.25;;;-1.34;100.00
2192;BME280;1102;49.718;11.902;2023-03-03T19:45:42;96637.84;;;-1.18;100.00
2192;BME280;1102;49.718;11.902;2023-03-03T20:01:49;96677.47;;;-1.45;100.00
2192;BME280;1102;49.718;11.902;2023-03-03T20:07:08;96681.44;;;-1.76;100.00
2192;BME280;1102;49.718;11.902;2023-03-03T20:17:42;96682.19;;;-1.97;100.00
2192;BME280;1102;49.718;11.902;2023-03-03T20:23:15;96686.34;;;-1.96;100.00
2192;BME280;1102;49.718;11.902;2023-03-03T20:26:48;96687.66;;;-1.77;100.00
2192;BME280;1102;49.718;11.902;2023-03-03T20:31:33;96684.69;;;-1.86;100.00
2192;BME280;1102;49.718;11.902;2023-03-03T20:34:16;96692.81;;;-1.99;100.00
2192;BME280;1102;49.718;11.902;2023-03-03T20:45:17;96693.91;;;-1.56;100.00
2192;BME280;1102;49.718;11.902;2023-03-03T20:53:46;96700.00;;;-2.18;100.00